sensor_id;sensor_type;location;lat;lon;timestamp;P1;durP1;ratioP1;P2;durP2;ratioP2
3000;SDS011;1510;51.072;6.678;2023-06-10T00:00:58;14.07;;;10.77;;
3000;SDS011;1510;51.072;6.678;2023-06-10T00:03:26;13.63;;;12.23;;
3000;SDS011;1510;51.072;6.678;2023-06-10T00:05:53;13.77;;;12.03;;
3000;SDS011;1510;51.072;6.678;2023-06-10T00:08:23;15.23;;;13.47;;
3000;SDS011;1510;51.072;6.678;2023-06-10T00:10:56;14.87;;;13.37;;
3000;SDS011;1510;51.072;6.678;2023-06-10T00:13:23;15.23;;;13.10;;
3000;SDS011;1510;51.072;6.678;2023-06-10T00:15:55;17.33;;;15.73;;
3000;SDS011;1510;51.072;6.678;2023-06-10T00:18:24;17.27;;;15.67;;
3000;SDS011;1510;51.072;6.678;2023-06-10T00:20:56;22.50;;;19.03;;
3000;SDS011;1510;51.072;6.678;2023-06-10T00:23:29;22.40;;;20.90;;
3000;SDS011;1510;51.072;6.678;2023-06-10T00:25:57;26.80;;;24.90;;
3000;SDS011;1510;51.072;6.678;2023-06-10T00:28:26;29.07;;;27.07;;
3000;SDS011;1510;51.072;6.678;2023-06-10T00:31:02;32.63;;;30.53;;
3000;SDS011;1510;51.072;6.678;2023-06-10T00:33:30;37.57;;;35.30;;
3000;SDS011;1510;51.072;6.678;2023-06-10T00:36:00;52.97;;;50.10;;
3000;SDS011;1510;51.072;6.678;2023-06-10T00:38:30;114.47;;;109.80;;
3000;SDS011;1510;51.072;6.678;2023-06-10T00:40:58;144.37;;;138.87;;
3000;SDS011;1510;51.072;6.678;2023-06-10T00:43:25;184.97;;;177.60;;
3000;SDS011;1510;51.072;6.678;2023-06-10T00:45:53;178.27;;;171.87;;
3000;SDS011;1510;51.072;6.678;2023-06-10T00:48:22;135.93;;;130.60;;
3000;SDS011;1510;51.072;6.678;2023-06-10T00:50:51;157.07;;;151.23;;
3000;SDS011;1510;51.072;6.678;2023-06-10T00:53:21;197.33;;;189.93;;
3000;SDS011;1510;51.072;6.678;2023-06-10T00:55:51;202.90;;;195.83;;
3000;SDS011;1510;51.072;6.678;2023-06-10T00:58:22;133.53;;;128.40;;
3000;SDS011;1510;51.072;6.678;2023-06-10T01:00:52;160.37;;;154.27;;
3000;SDS011;1510;51.072;6.678;2023-06-10T01:03:28;152.03;;;146.27;;
3000;SDS011;1510;51.072;6.678;2023-06-10T01:05:57;152.80;;;146.90;;
3000;SDS011;1510;51.072;6.678;2023-06-10T01:08:33;148.47;;;142.77;;
3000;SDS011;1510;51.072;6.678;2023-06-10T01:11:08;150.60;;;144.70;;
3000;SDS011;1510;51.072;6.678;2023-06-10T01:13:40;141.57;;;136.17;;
3000;SDS011;1510;51.072;6.678;2023-06-10T01:16:09;139.03;;;133.43;;
3000;SDS011;1510;51.072;6.678;2023-06-10T01:18:43;166.57;;;160.17;;
3000;SDS011;1510;51.072;6.678;2023-06-10T01:21:16;142.93;;;137.43;;
3000;SDS011;1510;51.072;6.678;2023-06-10T01:23:50;192.67;;;185.73;;
3000;SDS011;1510;51.072;6.678;2023-06-10T01:26:20;205.20;;;197.93;;
3000;SDS011;1510;51.072;6.678;2023-06-10T01:28:54;226.37;;;218.67;;
3000;SDS011;1510;51.072;6.678;2023-06-10T01:31:31;235.90;;;227.50;;
3000;SDS011;1510;51.072;6.678;2023-06-10T01:34:07;295.93;;;285.77;;
3000;SDS011;1510;51.072;6.678;2023-06-10T01:36:40;272.23;;;262.73;;
3000;SDS011;1510;51.072;6.678;2023-06-10T01:39:12;314.57;;;303.43;;
3000;SDS011;1510;51.072;6.678;2023-06-10T01:41:42;320.70;;;309.50;;
3000;SDS011;1510;51.072;6.678;2023-06-10T01:44:09;329.13;;;317.30;;
3000;SDS011;1510;51.072;6.678;2023-06-10T01:46:47;375.57;;;361.63;;
3000;SDS011;1510;51.072;6.678;2023-06-10T01:49:16;408.77;;;392.67;;
3000;SDS011;1510;51.072;6.678;2023-06-10T01:51:47;420.67;;;403.60;;
3000;SDS011;1510;51.072;6.678;2023-06-10T01:54:15;456.60;;;437.10;;
3000;SDS011;1510;51.072;6.678;2023-06-10T01:56:42;462.27;;;443.27;;
3000;SDS011;1510;51.072;6.678;2023-06-10T01:59:09;458.07;;;438.87;;
3000;SDS011;1510;51.072;6.678;2023-06-10T02:01:36;460.60;;;441.13;;
3000;SDS011;1510;51.072;6.678;2023-06-10T02:04:05;511.20;;;489.23;;
3000;SDS011;1510;51.072;6.678;2023-06-10T02:06:32;526.13;;;503.17;;
3000;SDS011;1510;51.072;6.678;2023-06-10T02:09:01;550.73;;;526.63;;
3000;SDS011;1510;51.072;6.678;2023-06-10T02:11:31;568.30;;;543.30;;
3000;SDS011;1510;51.072;6.678;2023-06-10T02:13:59;578.77;;;553.10;;
3000;SDS011;1510;51.072;6.678;2023-06-10T02:16:27;577.00;;;551.30;;
3000;SDS011;1510;51.072;6.678;2023-06-10T02:19:01;603.43;;;575.97;;
3000;SDS011;1510;51.072;6.678;2023-06-10T02:21:31;576.57;;;550.70;;
3000;SDS011;1510;51.072;6.678;2023-06-10T02:24:06;554.90;;;530.03;;
3000;SDS011;1510;51.072;6.678;2023-06-10T02:26:35;620.63;;;591.13;;
3000;SDS011;1510;51.072;6.678;2023-06-10T02:29:16;596.33;;;568.07;;
3000;SDS011;1510;51.072;6.678;2023-06-10T02:31:45;583.77;;;556.43;;
3000;SDS011;1510;51.072;6.678;2023-06-10T02:34:21;580.07;;;552.80;;
3000;SDS011;1510;51.072;6.678;2023-06-10T02:36:52;545.03;;;520.00;;
3000;SDS011;1510;51.072;6.678;2023-06-10T02:39:25;639.77;;;608.70;;
3000;SDS011;1510;51.072;6.678;2023-06-10T02:41:53;664.23;;;632.13;;
3000;SDS011;1510;51.072;6.678;2023-06-10T02:44:20;635.10;;;605.20;;
3000;SDS011;1510;51.072;6.678;2023-06-10T02:46:48;609.23;;;581.00;;
3000;SDS011;1510;51.072;6.678;2023-06-10T02:49:20;660.70;;;628.97;;
3000;SDS011;1510;51.072;6.678;2023-06-10T02:51:47;674.00;;;640.80;;
3000;SDS011;1510;51.072;6.678;2023-06-10T02:54:18;641.97;;;611.60;;
3000;SDS011;1510;51.072;6.678;2023-06-10T03:30:39;669.40;;;636.47;;
3000;SDS011;1510;51.072;6.678;2023-06-10T03:33:10;653.80;;;623.30;;
3000;SDS011;1510;51.072;6.678;2023-06-10T03:39:08;650.07;;;619.77;;
3000;SDS011;1510;51.072;6.678;2023-06-10T03:41:49;671.03;;;639.53;;
3000;SDS011;1510;51.072;6.678;2023-06-10T03:44:52;630.77;;;602.07;;
3000;SDS011;1510;51.072;6.678;2023-06-10T03:54:13;672.73;;;640.13;;
3000;SDS011;1510;51.072;6.678;2023-06-10T03:57:06;715.53;;;678.90;;
3000;SDS011;1510;51.072;6.678;2023-06-10T03:59:47;707.50;;;672.60;;
3000;SDS011;1510;51.072;6.678;2023-06-10T04:02:17;669.57;;;637.00;;
3000;SDS011;1510;51.072;6.678;2023-06-10T04:04:49;629.60;;;600.60;;
3000;SDS011;1510;51.072;6.678;2023-06-10T04:07:39;594.27;;;567.40;;
3000;SDS011;1510;51.072;6.678;2023-06-10T04:10:20;626.63;;;597.23;;
3000;SDS011;1510;51.072;6.678;2023-06-10T04:13:35;591.10;;;564.50;;
3000;SDS011;1510;51.072;6.678;2023-06-10T04:16:03;600.10;;;572.90;;
3000;SDS011;1510;51.072;6.678;2023-06-10T04:18:33;596.93;;;570.23;;
3000;SDS011;1510;51.072;6.678;2023-06-10T04:24:39;535.03;;;511.77;;
3000;SDS011;1510;51.072;6.678;2023-06-10T04:30:44;566.30;;;541.17;;
3000;SDS011;1510;51.072;6.678;2023-06-10T04:33:42;581.73;;;556.03;;
3000;SDS011;1510;51.072;6.678;2023-06-10T04:36:37;513.33;;;490.73;;
3000;SDS011;1510;51.072;6.678;2023-06-10T04:43:25;462.23;;;443.13;;
3000;SDS011;1510;51.072;6.678;2023-06-10T04:46:18;479.37;;;458.47;;
3000;SDS011;1510;51.072;6.678;2023-06-10T04:48:55;450.23;;;431.93;;
3000;SDS011;1510;51.072;6.678;2023-06-10T04:51:30;483.43;;;463.07;;
3000;SDS011;1510;51.072;6.678;2023-06-10T04:54:00;382.30;;;367.27;;
3000;SDS011;1510;51.072;6.678;2023-06-10T04:56:28;361.37;;;347.90;;
3000;SDS011;1510;51.072;6.678;2023-06-10T05:01:51;310.30;;;298.70;;
3000;SDS011;1510;51.072;6.678;2023-06-10T05:04:26;294.53;;;284.17;;
3000;SDS011;1510;51.072;6.678;2023-06-10T05:07:00;290.73;;;280.13;;
3000;SDS011;1510;51.072;6.678;2023-06-10T05:09:34;283.53;;;273.10;;
3000;SDS011;1510;51.072;6.678;2023-06-10T05:12:02;306.33;;;295.03;;
3000;SDS011;1510;51.072;6.678;2023-06-10T05:14:38;357.30;;;343.33;;
3000;SDS011;1510;51.072;6.678;2023-06-10T05:17:22;281.40;;;270.83;;
3000;SDS011;1510;51.072;6.678;2023-06-10T05:19:50;110.60;;;105.20;;
3000;SDS011;1510;51.072;6.678;2023-06-10T05:22:18;37.10;;;34.00;;
3000;SDS011;1510;51.072;6.678;2023-06-10T05:24:51;26.30;;;22.03;;
3000;SDS011;1510;51.072;6.678;2023-06-10T05:27:18;19.80;;;17.70;;
3000;SDS011;1510;51.072;6.678;2023-06-10T05:29:53;21.20;;;17.17;;
3000;SDS011;1510;51.072;6.678;2023-06-10T05:32:29;21.43;;;16.57;;
3000;SDS011;1510;51.072;6.678;2023-06-10T05:34:57;17.20;;;15.40;;
3000;SDS011;1510;51.072;6.678;2023-06-10T05:37:34;16.50;;;13.83;;
3000;SDS011;1510;51.072;6.678;2023-06-10T05:40:01;18.40;;;15.03;;
3000;SDS011;1510;51.072;6.678;2023-06-10T05:42:30;18.77;;;14.33;;
3000;SDS011;1510;51.072;6.678;2023-06-10T05:45:05;14.87;;;13.20;;
3000;SDS011;1510;51.072;6.678;2023-06-10T05:47:51;15.77;;;12.30;;
3000;SDS011;1510;51.072;6.678;2023-06-10T05:50:18;14.73;;;11.97;;
3000;SDS011;1510;51.072;6.678;2023-06-10T05:52:45;16.07;;;12.77;;
3000;SDS011;1510;51.072;6.678;2023-06-10T05:58:24;14.10;;;11.93;;
3000;SDS011;1510;51.072;6.678;2023-06-10T06:01:12;16.67;;;12.97;;
3000;SDS011;1510;51.072;6.678;2023-06-10T06:03:52;15.50;;;11.10;;
3000;SDS011;1510;51.072;6.678;2023-06-10T06:09:17;17.87;;;12.30;;
3000;SDS011;1510;51.072;6.678;2023-06-10T06:14:51;13.37;;;11.30;;
3000;SDS011;1510;51.072;6.678;2023-06-10T06:17:29;21.13;;;10.90;;
3000;SDS011;1510;51.072;6.678;2023-06-10T06:20:11;15.17;;;9.37;;
3000;SDS011;1510;51.072;6.678;2023-06-10T06:22:49;13.23;;;9.30;;
3000;SDS011;1510;51.072;6.678;2023-06-10T06:25:16;13.00;;;10.80;;
3000;SDS011;1510;51.072;6.678;2023-06-10T06:27:54;12.73;;;9.90;;
3000;SDS011;1510;51.072;6.678;2023-06-10T06:30:28;13.20;;;9.27;;
3000;SDS011;1510;51.072;6.678;2023-06-10T06:33:09;15.43;;;10.20;;
3000;SDS011;1510;51.072;6.678;2023-06-10T06:35:53;12.03;;;9.17;;
3000;SDS011;1510;51.072;6.678;2023-06-10T06:38:38;12.33;;;8.93;;
3000;SDS011;1510;51.072;6.678;2023-06-10T06:41:05;12.70;;;9.10;;
3000;SDS011;1510;51.072;6.678;2023-06-10T06:43:32;15.50;;;9.53;;
3000;SDS011;1510;51.072;6.678;2023-06-10T06:45:59;14.33;;;9.17;;
3000;SDS011;1510;51.072;6.678;2023-06-10T06:48:34;13.00;;;10.33;;
3000;SDS011;1510;51.072;6.678;2023-06-10T06:51:03;11.13;;;8.20;;
3000;SDS011;1510;51.072;6.678;2023-06-10T06:59:25;15.50;;;9.57;;
3000;SDS011;1510;51.072;6.678;2023-06-10T07:14:10;10.90;;;7.67;;
3000;SDS011;1510;51.072;6.678;2023-06-10T07:19:55;13.33;;;7.47;;
3000;SDS011;1510;51.072;6.678;2023-06-10T07:22:34;10.63;;;7.10;;
3000;SDS011;1510;51.072;6.678;2023-06-10T07:31:14;10.60;;;7.60;;
3000;SDS011;1510;51.072;6.678;2023-06-10T07:47:18;8.70;;;6.47;;
3000;SDS011;1510;51.072;6.678;2023-06-10T07:49:45;13.70;;;7.03;;
3000;SDS011;1510;51.072;6.678;2023-06-10T07:52:15;11.53;;;6.87;;
3000;SDS011;1510;51.072;6.678;2023-06-10T07:54:41;11.47;;;6.93;;
3000;SDS011;1510;51.072;6.678;2023-06-10T07:57:08;9.10;;;6.80;;
3000;SDS011;1510;51.072;6.678;2023-06-10T07:59:35;11.90;;;7.13;;
3000;SDS011;1510;51.072;6.678;2023-06-10T08:02:02;12.90;;;6.90;;
3000;SDS011;1510;51.072;6.678;2023-06-10T08:04:31;8.40;;;6.10;;
3000;SDS011;1510;51.072;6.678;2023-06-10T08:07:00;10.40;;;6.97;;
3000;SDS011;1510;51.072;6.678;2023-06-10T08:09:27;11.60;;;6.30;;
3000;SDS011;1510;51.072;6.678;2023-06-10T08:11:54;9.03;;;6.40;;
3000;SDS011;1510;51.072;6.678;2023-06-10T08:14:21;11.10;;;8.07;;
3000;SDS011;1510;51.072;6.678;2023-06-10T08:16:48;12.03;;;6.67;;
3000;SDS011;1510;51.072;6.678;2023-06-10T08:19:15;10.17;;;7.27;;
3000;SDS011;1510;51.072;6.678;2023-06-10T08:21:43;10.27;;;6.47;;
3000;SDS011;1510;51.072;6.678;2023-06-10T08:24:10;11.57;;;7.53;;
3000;SDS011;1510;51.072;6.678;2023-06-10T08:26:40;9.87;;;7.00;;
3000;SDS011;1510;51.072;6.678;2023-06-10T08:29:07;11.67;;;7.23;;
3000;SDS011;1510;51.072;6.678;2023-06-10T08:31:34;10.60;;;7.10;;
3000;SDS011;1510;51.072;6.678;2023-06-10T08:34:01;10.40;;;7.00;;
3000;SDS011;1510;51.072;6.678;2023-06-10T08:36:27;9.43;;;6.87;;
3000;SDS011;1510;51.072;6.678;2023-06-10T08:38:58;9.83;;;7.27;;
3000;SDS011;1510;51.072;6.678;2023-06-10T08:41:25;9.90;;;7.30;;
3000;SDS011;1510;51.072;6.678;2023-06-10T08:43:57;10.23;;;7.00;;
3000;SDS011;1510;51.072;6.678;2023-06-10T08:46:30;9.90;;;7.10;;
3000;SDS011;1510;51.072;6.678;2023-06-10T08:48:58;12.70;;;7.40;;
3000;SDS011;1510;51.072;6.678;2023-06-10T08:51:31;15.10;;;9.27;;
3000;SDS011;1510;51.072;6.678;2023-06-10T08:54:02;13.17;;;7.83;;
3000;SDS011;1510;51.072;6.678;2023-06-10T08:56:40;11.43;;;8.30;;
3000;SDS011;1510;51.072;6.678;2023-06-10T08:59:08;15.70;;;8.53;;
3000;SDS011;1510;51.072;6.678;2023-06-10T09:01:35;14.03;;;8.30;;
3000;SDS011;1510;51.072;6.678;2023-06-10T09:04:03;11.97;;;7.73;;
3000;SDS011;1510;51.072;6.678;2023-06-10T09:06:30;14.50;;;9.60;;
3000;SDS011;1510;51.072;6.678;2023-06-10T09:08:59;9.83;;;7.87;;
3000;SDS011;1510;51.072;6.678;2023-06-10T09:11:27;12.80;;;8.23;;
3000;SDS011;1510;51.072;6.678;2023-06-10T09:13:54;9.30;;;7.30;;
3000;SDS011;1510;51.072;6.678;2023-06-10T09:16:21;11.53;;;9.03;;
3000;SDS011;1510;51.072;6.678;2023-06-10T09:18:48;12.57;;;8.83;;
3000;SDS011;1510;51.072;6.678;2023-06-10T09:21:20;10.03;;;7.70;;
3000;SDS011;1510;51.072;6.678;2023-06-10T09:23:47;11.17;;;7.23;;
3000;SDS011;1510;51.072;6.678;2023-06-10T09:26:14;12.63;;;8.20;;
3000;SDS011;1510;51.072;6.678;2023-06-10T09:28:42;12.37;;;8.67;;
3000;SDS011;1510;51.072;6.678;2023-06-10T09:31:11;9.93;;;8.17;;
3000;SDS011;1510;51.072;6.678;2023-06-10T09:33:39;13.93;;;8.70;;
3000;SDS011;1510;51.072;6.678;2023-06-10T09:36:06;9.93;;;7.63;;
3000;SDS011;1510;51.072;6.678;2023-06-10T09:38:33;8.53;;;6.73;;
3000;SDS011;1510;51.072;6.678;2023-06-10T09:41:02;10.80;;;8.50;;
3000;SDS011;1510;51.072;6.678;2023-06-10T09:43:39;10.37;;;7.83;;
3000;SDS011;1510;51.072;6.678;2023-06-10T09:46:08;10.73;;;7.97;;
3000;SDS011;1510;51.072;6.678;2023-06-10T09:48:41;12.50;;;7.80;;
3000;SDS011;1510;51.072;6.678;2023-06-10T09:51:09;11.27;;;6.70;;
3000;SDS011;1510;51.072;6.678;2023-06-10T09:53:36;13.17;;;7.60;;
3000;SDS011;1510;51.072;6.678;2023-06-10T09:56:04;10.40;;;6.90;;
3000;SDS011;1510;51.072;6.678;2023-06-10T09:58:37;9.30;;;6.83;;
3000;SDS011;1510;51.072;6.678;2023-06-10T10:01:10;9.80;;;6.50;;
3000;SDS011;1510;51.072;6.678;2023-06-10T10:03:44;9.83;;;6.23;;
3000;SDS011;1510;51.072;6.678;2023-06-10T10:06:12;11.80;;;7.00;;
3000;SDS011;1510;51.072;6.678;2023-06-10T10:08:39;10.20;;;6.53;;
3000;SDS011;1510;51.072;6.678;2023-06-10T10:11:06;11.87;;;6.83;;
3000;SDS011;1510;51.072;6.678;2023-06-10T10:13:33;16.17;;;7.67;;
3000;SDS011;1510;51.072;6.678;2023-06-10T10:16:02;10.10;;;6.23;;
3000;SDS011;1510;51.072;6.678;2023-06-10T10:18:34;10.80;;;6.30;;
3000;SDS011;1510;51.072;6.678;2023-06-10T10:21:07;11.00;;;6.67;;
3000;SDS011;1510;51.072;6.678;2023-06-10T10:23:40;13.20;;;7.70;;
3000;SDS011;1510;51.072;6.678;2023-06-10T10:26:14;10.30;;;6.97;;
3000;SDS011;1510;51.072;6.678;2023-06-10T10:28:44;8.70;;;6.80;;
3000;SDS011;1510;51.072;6.678;2023-06-10T10:31:15;10.00;;;6.53;;
3000;SDS011;1510;51.072;6.678;2023-06-10T10:33:48;9.47;;;6.77;;
3000;SDS011;1510;51.072;6.678;2023-06-10T10:36:21;9.40;;;6.60;;
3000;SDS011;1510;51.072;6.678;2023-06-10T10:38:48;14.13;;;7.93;;
3000;SDS011;1510;51.072;6.678;2023-06-10T10:41:15;12.70;;;7.67;;
3000;SDS011;1510;51.072;6.678;2023-06-10T10:43:44;9.57;;;7.53;;
3000;SDS011;1510;51.072;6.678;2023-06-10T10:46:12;9.50;;;6.90;;
3000;SDS011;1510;51.072;6.678;2023-06-10T10:48:40;11.67;;;7.43;;
3000;SDS011;1510;51.072;6.678;2023-06-10T10:51:09;9.90;;;7.80;;
3000;SDS011;1510;51.072;6.678;2023-06-10T10:53:37;8.90;;;6.80;;
3000;SDS011;1510;51.072;6.678;2023-06-10T10:56:04;13.87;;;8.30;;
3000;SDS011;1510;51.072;6.678;2023-06-10T10:58:32;12.00;;;7.10;;
3000;SDS011;1510;51.072;6.678;2023-06-10T11:01:00;10.60;;;7.17;;
3000;SDS011;1510;51.072;6.678;2023-06-10T11:03:41;10.37;;;7.43;;
3000;SDS011;1510;51.072;6.678;2023-06-10T11:06:13;12.20;;;7.70;;
3000;SDS011;1510;51.072;6.678;2023-06-10T11:08:47;19.40;;;8.47;;
3000;SDS011;1510;51.072;6.678;2023-06-10T11:11:19;10.80;;;8.40;;
3000;SDS011;1510;51.072;6.678;2023-06-10T11:16:52;13.60;;;7.90;;
3000;SDS011;1510;51.072;6.678;2023-06-10T11:19:31;13.73;;;7.60;;
3000;SDS011;1510;51.072;6.678;2023-06-10T11:22:00;9.97;;;7.23;;
3000;SDS011;1510;51.072;6.678;2023-06-10T11:24:28;13.77;;;8.83;;
3000;SDS011;1510;51.072;6.678;2023-06-10T11:29:54;11.80;;;7.80;;
3000;SDS011;1510;51.072;6.678;2023-06-10T11:32:22;10.60;;;8.60;;
3000;SDS011;1510;51.072;6.678;2023-06-10T11:34:51;12.67;;;8.40;;
3000;SDS011;1510;51.072;6.678;2023-06-10T11:37:20;9.80;;;7.90;;
3000;SDS011;1510;51.072;6.678;2023-06-10T11:39:47;10.00;;;7.10;;
3000;SDS011;1510;51.072;6.678;2023-06-10T11:42:18;15.13;;;7.80;;
3000;SDS011;1510;51.072;6.678;2023-06-10T11:44:47;15.20;;;7.83;;
3000;SDS011;1510;51.072;6.678;2023-06-10T11:47:15;10.23;;;8.00;;
3000;SDS011;1510;51.072;6.678;2023-06-10T11:49:42;10.87;;;8.03;;
3000;SDS011;1510;51.072;6.678;2023-06-10T11:52:09;11.77;;;8.00;;
3000;SDS011;1510;51.072;6.678;2023-06-10T11:54:38;9.30;;;6.57;;
3000;SDS011;1510;51.072;6.678;2023-06-10T11:57:05;8.03;;;6.60;;
3000;SDS011;1510;51.072;6.678;2023-06-10T11:59:33;10.00;;;6.93;;
3000;SDS011;1510;51.072;6.678;2023-06-10T12:02:00;9.30;;;7.20;;
3000;SDS011;1510;51.072;6.678;2023-06-10T12:04:28;11.57;;;7.87;;
3000;SDS011;1510;51.072;6.678;2023-06-10T12:06:54;10.17;;;6.30;;
3000;SDS011;1510;51.072;6.678;2023-06-10T12:09:22;10.77;;;7.80;;
3000;SDS011;1510;51.072;6.678;2023-06-10T12:11:52;11.67;;;7.00;;
3000;SDS011;1510;51.072;6.678;2023-06-10T12:17:22;10.83;;;7.67;;
3000;SDS011;1510;51.072;6.678;2023-06-10T12:20:02;10.13;;;7.10;;
3000;SDS011;1510;51.072;6.678;2023-06-10T12:22:35;11.70;;;7.50;;
3000;SDS011;1510;51.072;6.678;2023-06-10T12:25:03;12.77;;;7.57;;
3000;SDS011;1510;51.072;6.678;2023-06-10T12:27:33;8.57;;;6.60;;
3000;SDS011;1510;51.072;6.678;2023-06-10T12:30:02;11.10;;;7.20;;
3000;SDS011;1510;51.072;6.678;2023-06-10T12:32:38;9.43;;;6.70;;
3000;SDS011;1510;51.072;6.678;2023-06-10T12:35:06;13.53;;;8.57;;
3000;SDS011;1510;51.072;6.678;2023-06-10T12:37:34;11.07;;;7.30;;
3000;SDS011;1510;51.072;6.678;2023-06-10T12:40:02;9.93;;;6.57;;
3000;SDS011;1510;51.072;6.678;2023-06-10T12:42:32;10.90;;;8.27;;
3000;SDS011;1510;51.072;6.678;2023-06-10T12:45:00;8.57;;;7.30;;
3000;SDS011;1510;51.072;6.678;2023-06-10T12:47:30;12.33;;;7.43;;
3000;SDS011;1510;51.072;6.678;2023-06-10T12:49:59;11.60;;;7.57;;
3000;SDS011;1510;51.072;6.678;2023-06-10T12:52:27;10.17;;;7.63;;
3000;SDS011;1510;51.072;6.678;2023-06-10T12:54:53;10.77;;;7.10;;
3000;SDS011;1510;51.072;6.678;2023-06-10T12:57:21;9.53;;;6.70;;
3000;SDS011;1510;51.072;6.678;2023-06-10T12:59:50;9.43;;;6.20;;
3000;SDS011;1510;51.072;6.678;2023-06-10T13:02:17;10.03;;;6.60;;
3000;SDS011;1510;51.072;6.678;2023-06-10T13:04:45;9.33;;;7.00;;
3000;SDS011;1510;51.072;6.678;2023-06-10T13:07:12;9.63;;;7.03;;
3000;SDS011;1510;51.072;6.678;2023-06-10T13:09:39;10.30;;;7.30;;
3000;SDS011;1510;51.072;6.678;2023-06-10T13:12:06;9.30;;;6.77;;
3000;SDS011;1510;51.072;6.678;2023-06-10T13:14:34;11.83;;;6.37;;
3000;SDS011;1510;51.072;6.678;2023-06-10T13:17:03;16.17;;;8.53;;
3000;SDS011;1510;51.072;6.678;2023-06-10T13:19:31;8.90;;;6.10;;
3000;SDS011;1510;51.072;6.678;2023-06-10T13:21:58;9.73;;;7.00;;
3000;SDS011;1510;51.072;6.678;2023-06-10T13:24:25;9.23;;;6.43;;
3000;SDS011;1510;51.072;6.678;2023-06-10T13:26:52;9.43;;;5.80;;
3000;SDS011;1510;51.072;6.678;2023-06-10T13:29:20;9.53;;;6.33;;
3000;SDS011;1510;51.072;6.678;2023-06-10T13:31:46;11.27;;;7.17;;
3000;SDS011;1510;51.072;6.678;2023-06-10T13:34:15;8.30;;;6.10;;
3000;SDS011;1510;51.072;6.678;2023-06-10T13:36:41;9.47;;;6.40;;
3000;SDS011;1510;51.072;6.678;2023-06-10T13:39:08;9.07;;;6.40;;
3000;SDS011;1510;51.072;6.678;2023-06-10T13:41:35;11.60;;;6.23;;
3000;SDS011;1510;51.072;6.678;2023-06-10T13:44:02;8.80;;;6.20;;
3000;SDS011;1510;51.072;6.678;2023-06-10T13:46:29;9.90;;;5.80;;
3000;SDS011;1510;51.072;6.678;2023-06-10T13:48:56;7.47;;;5.80;;
3000;SDS011;1510;51.072;6.678;2023-06-10T13:51:24;9.33;;;6.33;;
3000;SDS011;1510;51.072;6.678;2023-06-10T13:53:51;11.00;;;6.80;;
3000;SDS011;1510;51.072;6.678;2023-06-10T13:56:18;9.20;;;5.93;;
3000;SDS011;1510;51.072;6.678;2023-06-10T13:58:45;9.30;;;6.47;;
3000;SDS011;1510;51.072;6.678;2023-06-10T14:01:12;8.50;;;5.90;;
3000;SDS011;1510;51.072;6.678;2023-06-10T14:03:39;9.83;;;5.40;;
3000;SDS011;1510;51.072;6.678;2023-06-10T14:06:06;8.47;;;5.97;;
3000;SDS011;1510;51.072;6.678;2023-06-10T14:08:34;12.13;;;5.90;;
3000;SDS011;1510;51.072;6.678;2023-06-10T14:11:01;7.80;;;5.90;;
3000;SDS011;1510;51.072;6.678;2023-06-10T14:13:28;7.90;;;5.83;;
3000;SDS011;1510;51.072;6.678;2023-06-10T14:15:55;11.10;;;5.70;;
3000;SDS011;1510;51.072;6.678;2023-06-10T14:18:22;9.70;;;5.83;;
3000;SDS011;1510;51.072;6.678;2023-06-10T14:20:49;10.97;;;5.20;;
3000;SDS011;1510;51.072;6.678;2023-06-10T14:23:16;7.20;;;4.77;;
3000;SDS011;1510;51.072;6.678;2023-06-10T14:25:44;8.67;;;5.87;;
3000;SDS011;1510;51.072;6.678;2023-06-10T14:28:11;10.70;;;6.07;;
3000;SDS011;1510;51.072;6.678;2023-06-10T14:30:38;8.70;;;6.20;;
3000;SDS011;1510;51.072;6.678;2023-06-10T14:33:05;10.13;;;5.63;;
3000;SDS011;1510;51.072;6.678;2023-06-10T14:35:32;12.33;;;6.60;;
3000;SDS011;1510;51.072;6.678;2023-06-10T14:37:59;7.90;;;6.00;;
3000;SDS011;1510;51.072;6.678;2023-06-10T14:40:25;11.23;;;6.63;;
3000;SDS011;1510;51.072;6.678;2023-06-10T14:42:55;9.30;;;6.30;;
3000;SDS011;1510;51.072;6.678;2023-06-10T14:45:22;7.80;;;6.60;;
3000;SDS011;1510;51.072;6.678;2023-06-10T14:47:50;11.90;;;6.20;;
3000;SDS011;1510;51.072;6.678;2023-06-10T14:50:17;14.40;;;8.97;;
3000;SDS011;1510;51.072;6.678;2023-06-10T14:52:44;9.23;;;6.90;;
3000;SDS011;1510;51.072;6.678;2023-06-10T14:55:10;9.60;;;6.40;;
3000;SDS011;1510;51.072;6.678;2023-06-10T14:57:37;9.67;;;6.73;;
3000;SDS011;1510;51.072;6.678;2023-06-10T15:00:07;9.33;;;7.00;;
3000;SDS011;1510;51.072;6.678;2023-06-10T15:02:34;13.40;;;6.80;;
3000;SDS011;1510;51.072;6.678;2023-06-10T15:05:01;12.60;;;5.77;;
3000;SDS011;1510;51.072;6.678;2023-06-10T15:07:28;10.70;;;7.10;;
3000;SDS011;1510;51.072;6.678;2023-06-10T15:09:55;9.40;;;6.20;;
3000;SDS011;1510;51.072;6.678;2023-06-10T15:12:22;12.40;;;7.27;;
3000;SDS011;1510;51.072;6.678;2023-06-10T15:14:50;10.37;;;7.40;;
3000;SDS011;1510;51.072;6.678;2023-06-10T15:17:18;8.87;;;6.27;;
3000;SDS011;1510;51.072;6.678;2023-06-10T15:19:45;9.37;;;6.70;;
3000;SDS011;1510;51.072;6.678;2023-06-10T15:22:12;10.07;;;5.77;;
3000;SDS011;1510;51.072;6.678;2023-06-10T15:24:39;11.13;;;6.03;;
3000;SDS011;1510;51.072;6.678;2023-06-10T15:27:06;10.83;;;6.57;;
3000;SDS011;1510;51.072;6.678;2023-06-10T15:29:32;11.43;;;6.73;;
3000;SDS011;1510;51.072;6.678;2023-06-10T15:31:59;10.30;;;6.90;;
3000;SDS011;1510;51.072;6.678;2023-06-10T15:34:28;10.50;;;6.00;;
3000;SDS011;1510;51.072;6.678;2023-06-10T15:36:55;9.07;;;5.77;;
3000;SDS011;1510;51.072;6.678;2023-06-10T15:39:22;7.90;;;5.93;;
3000;SDS011;1510;51.072;6.678;2023-06-10T15:41:49;8.43;;;6.17;;
3000;SDS011;1510;51.072;6.678;2023-06-10T15:44:16;10.47;;;6.33;;
3000;SDS011;1510;51.072;6.678;2023-06-10T15:46:43;8.97;;;6.23;;
3000;SDS011;1510;51.072;6.678;2023-06-10T15:49:11;10.47;;;5.77;;
3000;SDS011;1510;51.072;6.678;2023-06-10T15:51:39;8.77;;;5.20;;
3000;SDS011;1510;51.072;6.678;2023-06-10T15:54:06;9.10;;;6.50;;
3000;SDS011;1510;51.072;6.678;2023-06-10T15:56:33;8.13;;;5.63;;
3000;SDS011;1510;51.072;6.678;2023-06-10T15:59:00;8.10;;;5.87;;
3000;SDS011;1510;51.072;6.678;2023-06-10T16:01:26;18.97;;;6.93;;
3000;SDS011;1510;51.072;6.678;2023-06-10T16:03:53;8.17;;;5.80;;
3000;SDS011;1510;51.072;6.678;2023-06-10T16:06:20;11.40;;;5.60;;
3000;SDS011;1510;51.072;6.678;2023-06-10T16:08:49;17.23;;;6.50;;
3000;SDS011;1510;51.072;6.678;2023-06-10T16:11:16;9.90;;;5.93;;
3000;SDS011;1510;51.072;6.678;2023-06-10T16:13:42;9.27;;;6.17;;
3000;SDS011;1510;51.072;6.678;2023-06-10T16:16:09;9.70;;;6.30;;
3000;SDS011;1510;51.072;6.678;2023-06-10T16:18:36;9.77;;;7.33;;
3000;SDS011;1510;51.072;6.678;2023-06-10T16:21:03;11.33;;;7.40;;
3000;SDS011;1510;51.072;6.678;2023-06-10T16:23:30;10.33;;;6.80;;
3000;SDS011;1510;51.072;6.678;2023-06-10T16:25:58;8.90;;;5.80;;
3000;SDS011;1510;51.072;6.678;2023-06-10T16:28:25;9.80;;;6.37;;
3000;SDS011;1510;51.072;6.678;2023-06-10T16:30:52;8.10;;;5.40;;
3000;SDS011;1510;51.072;6.678;2023-06-10T16:33:19;11.93;;;6.30;;
3000;SDS011;1510;51.072;6.678;2023-06-10T16:35:46;8.60;;;6.23;;
3000;SDS011;1510;51.072;6.678;2023-06-10T16:38:13;9.33;;;5.70;;
3000;SDS011;1510;51.072;6.678;2023-06-10T16:40:40;9.03;;;6.17;;
3000;SDS011;1510;51.072;6.678;2023-06-10T16:43:08;13.27;;;6.63;;
3000;SDS011;1510;51.072;6.678;2023-06-10T16:45:35;10.10;;;6.30;;
3000;SDS011;1510;51.072;6.678;2023-06-10T16:48:02;11.60;;;6.60;;
3000;SDS011;1510;51.072;6.678;2023-06-10T16:50:31;11.53;;;6.80;;
3000;SDS011;1510;51.072;6.678;2023-06-10T16:52:58;10.40;;;6.80;;
3000;SDS011;1510;51.072;6.678;2023-06-10T16:55:25;10.57;;;6.30;;
3000;SDS011;1510;51.072;6.678;2023-06-10T16:57:52;9.77;;;6.30;;
3000;SDS011;1510;51.072;6.678;2023-06-10T17:00:20;9.87;;;6.07;;
3000;SDS011;1510;51.072;6.678;2023-06-10T17:02:47;8.67;;;5.17;;
3000;SDS011;1510;51.072;6.678;2023-06-10T17:05:14;10.53;;;5.70;;
3000;SDS011;1510;51.072;6.678;2023-06-10T17:07:41;11.73;;;6.03;;